Stehekin, WA (98852)

9:34 PM PDT on September 03, 2015 (GMT -0700)
Stone Meadow | | Change Station
CLOSE
Current Station
Personal Weather Station
Location: Winthrop, WA
Elevation: 1883 ft
Nearby Weather Stations

Elev 1883 ft 48.49 °N, 120.25 °W | Updated 14 minutes ago

Mostly Cloudy
Mostly Cloudy
55.2 °F
Feels Like 55.2 °F
N
9.4
Wind Variable Wind from North

Today
High -- | Low -- °F
--% Chance of Precip.
Yesterday
High -- | Low -- °F
Precip. -- in
6:22 AM 7:40 PM
Waning Gibbous, 63% visible
Pressure 29.88 in
Visibility 10.0 miles
Clouds Few 12000 ft
Dew Point 35 °F
Humidity 47%
Rainfall 0.00 in
Snow Depth Not available.
UV 0 out of 12
Pollen .50 out of 12
Air Quality Not available.
Flu Activity Not available.
METAR KOMK 040353Z AUTO 33007KT 10SM FEW120 15/M01 A2988 RMK AO2 SLP119 T01501011
Pressure 29.88 in
Visibility 10.0 miles
Clouds Few 12000 ft
Dew Point 35 °F
Humidity 47%
Rainfall 0.00 in
Snow Depth Not available.
UV 0 out of 12
Pollen .50 out of 12
Air Quality Not available.
Flu Activity Not available.
METAR KOMK 040353Z AUTO 33007KT 10SM FEW120 15/M01 A2988 RMK AO2 SLP119 T01501011

10-Day Weather Forecast

×

Almanac

Astronomy

Sep. 03, 2015 Rise Set
Actual Time
Civil Twilight
Nautical Twilight
Astronomical Twilight
Moon
Length of Visible Light
Length of Day
Tomorrow will be .
, % of the Moon is Illuminated

Today's Extremes

State Highs State Lows

Community

WunderPhotos

Upload Photos

1,852,129 photos uploaded!

WunderBlogs® & News

Nearby

Air Quality

  Air Quality AQ Index Pollutant
Not available.

Snow Depth

Station Depth Elevation

Earthquake Activity

City Distance Mag. Time & Date
Minimum magnitude displayed is 2.5.

Coastal Water Temperatures

Place Temperature

Stations

Nearby Weather Stations

Station Location Temp. Windchill Dew Point Humidity Wind Precip. Elev Updated Type